Time;durP1;ratioP1;P1;durP2;ratioP2;P2;SDS_P1;SDS_P2;PMS_P1;PMS_P2;Temp;Humidity;BMP_temperature;BMP_pressure;BME280_temperature;BME280_humidity;BME280_pressure;Samples;Min_cycle;Max_cycle;Signal;HPM_P1;HPM_P2
2023/08/14 00:01:38;;;;;;;6.03;5.43;;;24.70;99.90;;;;;;6228816;28;89316;-72
2023/08/14 00:04:40;;;;;;;6.03;5.43;;;24.60;99.90;;;;;;6216274;28;89084;-71
2023/08/14 00:07:43;;;;;;;6.50;5.35;;;24.70;99.90;;;;;;6212933;28;88676;-69
2023/08/14 00:10:46;;;;;;;5.88;5.22;;;24.70;99.90;;;;;;6224109;28;88417;-69
2023/08/14 00:13:53;;;;;;;7.32;5.47;;;24.60;99.90;;;;;;6223997;28;88315;-68
2023/08/14 00:16:55;;;;;;;7.22;5.43;;;24.70;99.90;;;;;;6219451;28;87962;-69
2023/08/14 00:19:57;;;;;;;6.20;4.95;;;24.70;99.90;;;;;;6226969;28;90567;-69
2023/08/14 00:23:00;;;;;;;6.07;5.15;;;24.70;99.90;;;;;;6223079;28;89980;-68
2023/08/14 00:26:02;;;;;;;5.32;4.82;;;24.60;99.90;;;;;;6228284;28;89147;-68
2023/08/14 00:29:04;;;;;;;6.38;4.78;;;24.60;99.90;;;;;;6229469;28;89076;-68
2023/08/14 00:32:06;;;;;;;5.47;4.88;;;24.60;99.90;;;;;;6224083;28;89125;-68
2023/08/14 00:35:09;;;;;;;5.75;4.90;;;24.60;99.90;;;;;;6224726;28;89054;-69
2023/08/14 00:38:12;;;;;;;6.55;4.88;;;24.60;99.90;;;;;;6217275;28;89024;-68
2023/08/14 00:41:14;;;;;;;6.53;4.70;;;24.60;99.90;;;;;;6229355;28;89075;-69
2023/08/14 00:44:16;;;;;;;6.57;4.95;;;24.70;99.90;;;;;;6222636;28;88363;-69
2023/08/14 00:47:18;;;;;;;5.10;4.60;;;24.60;99.90;;;;;;6231694;28;89093;-68
2023/08/14 00:50:20;;;;;;;5.30;4.80;;;24.60;99.90;;;;;;6230857;28;89095;-68
2023/08/14 00:53:26;;;;;;;7.22;5.43;;;24.60;99.90;;;;;;6235003;28;90044;-68
2023/08/14 00:56:29;;;;;;;6.90;5.30;;;24.60;99.90;;;;;;6222658;28;88980;-68
2023/08/14 00:59:32;;;;;;;5.75;4.47;;;24.60;99.90;;;;;;6211606;28;88967;-68
2023/08/14 01:02:35;;;;;;;5.20;4.70;;;24.60;99.90;;;;;;6232504;28;89232;-68
2023/08/14 01:05:37;;;;;;;5.75;4.47;;;24.60;99.90;;;;;;6228609;28;89067;-69
2023/08/14 01:08:40;;;;;;;4.00;3.60;;;24.50;99.90;;;;;;6229320;28;89029;-68
2023/08/14 01:11:54;;;;;;;3.92;3.53;;;24.50;99.90;;;;;;6224442;28;89039;-68
2023/08/14 01:15:01;;;;;;;3.85;3.45;;;24.50;99.90;;;;;;6229071;28;88617;-68
2023/08/14 01:18:04;;;;;;;4.93;4.10;;;24.50;99.90;;;;;;6217374;28;89020;-68
2023/08/14 01:21:35;;;;;;;4.20;3.45;;;24.50;99.90;;;;;;6218067;28;89067;-68
2023/08/14 01:24:52;;;;;;;4.20;3.80;;;24.50;99.90;;;;;;6226113;28;90000;-68
2023/08/14 01:27:57;;;;;;;5.28;3.33;;;24.50;99.90;;;;;;6225546;28;88847;-68
2023/08/14 01:30:58;;;;;;;3.80;3.20;;;24.50;99.90;;;;;;6224875;28;88410;-71
2023/08/14 01:34:00;;;;;;;3.97;3.17;;;24.50;99.90;;;;;;6229768;28;89005;-69
2023/08/14 01:37:11;;;;;;;4.30;3.35;;;24.50;99.90;;;;;;6225701;28;89049;-69
2023/08/14 01:40:24;;;;;;;2.90;2.70;;;24.50;99.90;;;;;;6226051;28;88417;-69
2023/08/14 01:43:31;;;;;;;4.10;3.20;;;24.50;99.90;;;;;;6213081;28;89204;-69
2023/08/14 01:46:35;;;;;;;2.47;2.25;;;24.50;99.90;;;;;;6223481;28;87300;-69
2023/08/14 01:49:38;;;;;;;3.13;2.80;;;24.50;99.90;;;;;;6224234;28;89144;-69
2023/08/14 01:52:40;;;;;;;2.72;2.35;;;24.50;99.90;;;;;;6221711;28;89337;-68
2023/08/14 01:55:42;;;;;;;3.28;2.42;;;24.50;99.90;;;;;;6218543;28;90073;-70
2023/08/14 01:58:45;;;;;;;2.80;2.60;;;24.50;99.90;;;;;;6220569;28;89379;-70
2023/08/14 02:01:47;;;;;;;2.30;2.05;;;24.50;99.90;;;;;;6230122;28;89005;-69
2023/08/14 02:04:49;;;;;;;2.80;2.35;;;24.50;99.90;;;;;;6229302;28;89041;-69
2023/08/14 02:07:51;;;;;;;2.92;2.00;;;24.50;99.90;;;;;;6220426;28;89148;-69
2023/08/14 02:10:53;;;;;;;3.17;1.83;;;24.50;99.90;;;;;;6224675;28;89081;-70
2023/08/14 02:13:57;;;;;;;2.42;2.10;;;24.50;99.90;;;;;;6230116;28;89047;-69
2023/08/14 02:16:58;;;;;;;2.00;1.80;;;24.50;99.90;;;;;;6227517;28;88521;-68
2023/08/14 02:20:00;;;;;;;3.03;1.98;;;24.50;99.90;;;;;;6232436;28;89137;-69
2023/08/14 02:23:03;;;;;;;1.95;1.73;;;24.50;99.90;;;;;;6229754;28;89039;-69
2023/08/14 02:26:05;;;;;;;3.88;2.10;;;24.50;99.90;;;;;;6222746;28;89227;-69
2023/08/14 02:29:09;;;;;;;2.83;2.22;;;24.50;99.90;;;;;;6225526;28;89142;-69
2023/08/14 02:32:11;;;;;;;2.10;1.88;;;24.50;99.90;;;;;;6227859;28;89022;-69
2023/08/14 02:35:13;;;;;;;2.95;2.20;;;24.60;99.90;;;;;;6227726;28;89055;-69
2023/08/14 02:38:15;;;;;;;2.35;1.80;;;24.50;99.90;;;;;;6228272;28;89892;-68
2023/08/14 02:41:17;;;;;;;2.88;1.80;;;24.50;99.90;;;;;;6225702;28;89478;-69
2023/08/14 02:44:20;;;;;;;3.30;2.00;;;24.50;99.90;;;;;;6226396;28;89017;-70
2023/08/14 02:47:22;;;;;;;4.88;1.92;;;24.50;99.90;;;;;;6216611;28;88619;-70
2023/08/14 02:50:24;;;;;;;3.88;2.20;;;24.50;99.90;;;;;;6226633;28;88939;-70
2023/08/14 02:53:26;;;;;;;2.83;2.00;;;24.50;99.90;;;;;;6228895;28;89723;-70
2023/08/14 02:56:28;;;;;;;2.70;1.83;;;24.60;99.90;;;;;;6217680;28;90009;-69
2023/08/14 02:59:33;;;;;;;2.40;2.10;;;24.50;99.90;;;;;;6225782;28;89061;-69
2023/08/14 03:02:35;;;;;;;2.63;1.80;;;24.50;99.90;;;;;;6229037;28;89032;-69
2023/08/14 03:05:37;;;;;;;3.45;1.98;;;24.50;99.90;;;;;;6224458;28;89308;-69
2023/08/14 03:08:39;;;;;;;2.30;1.90;;;24.60;99.90;;;;;;6220049;28;88953;-70
2023/08/14 03:11:41;;;;;;;2.08;1.83;;;24.50;99.90;;;;;;6222457;28;89036;-69
2023/08/14 03:14:44;;;;;;;1.95;1.80;;;24.50;99.90;;;;;;6221215;28;89053;-69
2023/08/14 03:17:47;;;;;;;2.05;1.92;;;24.50;99.90;;;;;;6229602;28;88728;-69
2023/08/14 03:20:50;;;;;;;2.20;1.92;;;24.50;99.90;;;;;;6232085;28;89215;-70
2023/08/14 03:23:52;;;;;;;2.13;1.90;;;24.50;99.90;;;;;;6222961;28;89047;-69
2023/08/14 03:26:54;;;;;;;1.95;1.75;;;24.50;99.90;;;;;;6226567;28;90062;-69
2023/08/14 03:29:57;;;;;;;2.35;1.80;;;24.50;99.90;;;;;;6227239;28;87966;-69
2023/08/14 03:32:59;;;;;;;3.15;2.00;;;24.50;99.90;;;;;;6228152;28;89064;-69
2023/08/14 03:36:01;;;;;;;2.50;1.83;;;24.50;99.90;;;;;;6221662;28;89052;-69
2023/08/14 03:39:03;;;;;;;3.65;1.92;;;24.50;99.90;;;;;;6224929;28;89140;-68
2023/08/14 03:42:05;;;;;;;2.97;1.88;;;24.50;99.90;;;;;;6229403;28;90803;-68
2023/08/14 03:45:10;;;;;;;2.58;1.83;;;24.50;99.90;;;;;;6228628;28;89402;-68
2023/08/14 03:48:12;;;;;;;2.63;1.80;;;24.50;99.90;;;;;;6225754;28;88409;-68
2023/08/14 03:51:14;;;;;;;2.00;1.80;;;24.50;99.90;;;;;;6218090;28;89201;-68
2023/08/14 03:54:16;;;;;;;3.25;1.90;;;24.50;99.90;;;;;;6209829;28;88619;-69
2023/08/14 03:57:18;;;;;;;3.33;2.28;;;24.40;99.90;;;;;;6231738;28;90038;-69
2023/08/14 04:00:21;;;;;;;2.30;2.10;;;24.30;99.90;;;;;;6222274;28;88984;-68
2023/08/14 04:03:23;;;;;;;3.55;2.53;;;24.30;99.90;;;;;;6225102;27;89339;-66
2023/08/14 04:06:25;;;;;;;5.30;3.42;;;24.30;99.90;;;;;;6229670;28;88418;-67
2023/08/14 04:09:27;;;;;;;5.85;5.25;;;24.20;99.90;;;;;;6218322;28;89143;-70
2023/08/14 04:12:29;;;;;;;3.40;3.08;;;24.30;99.90;;;;;;6219317;28;90471;-70
2023/08/14 04:15:33;;;;;;;4.65;2.75;;;24.30;99.90;;;;;;6227090;28;89562;-69
2023/08/14 04:18:35;;;;;;;4.43;2.90;;;24.30;99.90;;;;;;6219664;28;87723;-70
2023/08/14 04:21:37;;;;;;;4.15;2.83;;;24.30;99.90;;;;;;6228423;28;89009;-70
2023/08/14 04:24:41;;;;;;;6.38;3.67;;;24.30;99.90;;;;;;6221636;28;89139;-70
2023/08/14 04:27:43;;;;;;;10.98;4.53;;;24.40;99.90;;;;;;6216028;28;89902;-71
2023/08/14 04:30:46;;;;;;;6.28;3.63;;;24.40;99.90;;;;;;6217645;28;89193;-70
2023/08/14 04:33:48;;;;;;;5.88;3.47;;;24.40;99.90;;;;;;6218548;28;89030;-70
2023/08/14 04:36:51;;;;;;;4.43;3.30;;;24.40;99.90;;;;;;6229006;28;89073;-69
2023/08/14 04:39:53;;;;;;;5.18;2.75;;;24.40;99.90;;;;;;6222813;28;88991;-68
2023/08/14 04:42:55;;;;;;;4.85;3.30;;;24.40;99.90;;;;;;6223841;28;87992;-70
2023/08/14 04:45:58;;;;;;;4.95;3.10;;;24.30;99.90;;;;;;6214748;28;87955;-70
2023/08/14 04:49:00;;;;;;;9.63;3.60;;;24.30;99.90;;;;;;6229043;28;87792;-72
2023/08/14 04:52:03;;;;;;;4.20;3.20;;;24.30;99.90;;;;;;6231935;28;89121;-76
2023/08/14 04:55:06;;;;;;;5.45;3.47;;;24.30;99.90;;;;;;6238834;28;88989;-71
2023/08/14 04:58:08;;;;;;;5.35;3.63;;;24.40;99.90;;;;;;6235309;28;89869;-69
2023/08/14 05:01:11;;;;;;;4.63;3.45;;;24.40;99.90;;;;;;6223561;28;89134;-71
2023/08/14 05:04:13;;;;;;;4.00;3.42;;;24.40;99.90;;;;;;6211975;28;89113;-70
2023/08/14 05:07:15;;;;;;;5.85;3.85;;;24.50;99.90;;;;;;6219497;28;89155;-71
2023/08/14 05:10:17;;;;;;;4.63;4.13;;;24.50;99.90;;;;;;6229663;28;89039;-71
2023/08/14 05:13:20;;;;;;;4.15;3.75;;;24.60;99.90;;;;;;6211585;28;88989;-71
2023/08/14 05:16:23;;;;;;;4.82;4.13;;;24.60;99.90;;;;;;6227136;28;88195;-71
2023/08/14 05:19:25;;;;;;;4.57;4.18;;;24.60;99.90;;;;;;6213047;28;88134;-71
2023/08/14 05:22:27;;;;;;;4.88;4.38;;;24.60;99.90;;;;;;6217179;28;89052;-72
2023/08/14 05:25:29;;;;;;;5.82;5.30;;;24.60;99.90;;;;;;6225237;28;88006;-70
2023/08/14 05:28:31;;;;;;;6.50;6.00;;;24.70;99.90;;;;;;6222541;28;90035;-70
2023/08/14 05:31:34;;;;;;;96.68;89.25;;;24.70;99.90;;;;;;6230755;28;87953;-69
2023/08/14 05:34:36;;;;;;;25.52;23.40;;;24.90;99.90;;;;;;6219756;28;87859;-70
2023/08/14 05:37:38;;;;;;;15.27;13.98;;;25.20;99.90;;;;;;6227458;28;89035;-69
2023/08/14 05:40:40;;;;;;;10.40;9.27;;;25.50;99.90;;;;;;6217985;28;89196;-70
2023/08/14 05:43:42;;;;;;;7.82;7.05;;;25.50;99.90;;;;;;6232081;28;89071;-69
2023/08/14 05:46:45;;;;;;;6.15;5.32;;;25.60;99.90;;;;;;6233506;28;89025;-69
2023/08/14 05:49:47;;;;;;;5.95;4.05;;;25.60;99.90;;;;;;6213981;28;88375;-70
2023/08/14 05:52:49;;;;;;;6.97;3.88;;;25.50;99.90;;;;;;6220817;28;88970;-70
2023/08/14 05:55:51;;;;;;;5.55;3.65;;;25.40;99.90;;;;;;6229404;28;88054;-69
2023/08/14 05:58:57;;;;;;;3.60;2.88;;;25.30;99.90;;;;;;6227594;28;90467;-70
2023/08/14 06:02:00;;;;;;;3.60;3.03;;;25.20;99.90;;;;;;6226471;28;88240;-70
2023/08/14 06:05:03;;;;;;;4.63;3.40;;;25.20;99.90;;;;;;6226483;28;89038;-70
2023/08/14 06:08:06;;;;;;;5.43;3.38;;;25.10;99.90;;;;;;6230278;28;89062;-70
2023/08/14 06:11:08;;;;;;;6.10;4.18;;;25.10;99.90;;;;;;6232867;28;89143;-70
2023/08/14 06:14:10;;;;;;;6.95;5.57;;;25.00;99.90;;;;;;6240303;28;88960;-70
2023/08/14 06:17:13;;;;;;;6.75;5.32;;;25.00;99.90;;;;;;6219483;28;89061;-70
2023/08/14 06:20:15;;;;;;;7.57;5.10;;;24.90;99.90;;;;;;6225076;28;88476;-70
2023/08/14 06:23:17;;;;;;;8.52;5.45;;;24.90;99.90;;;;;;6232361;28;89288;-71
2023/08/14 06:26:19;;;;;;;11.32;5.20;;;24.90;99.90;;;;;;6227243;28;89591;-70
2023/08/14 06:29:22;;;;;;;7.18;5.18;;;24.80;99.90;;;;;;6215467;28;89975;-70
2023/08/14 06:32:25;;;;;;;6.78;5.50;;;24.80;99.90;;;;;;6221382;28;89499;-70
2023/08/14 06:35:37;;;;;;;6.13;5.28;;;24.80;99.90;;;;;;6225068;28;89303;-70
2023/08/14 06:38:39;;;;;;;5.70;4.70;;;24.80;99.90;;;;;;6219798;28;89326;-70
2023/08/14 06:41:41;;;;;;;7.95;5.60;;;24.80;99.90;;;;;;6228835;28;89079;-70
2023/08/14 06:44:43;;;;;;;5.25;4.45;;;24.80;99.90;;;;;;6228447;28;89413;-71
2023/08/14 06:47:46;;;;;;;5.57;4.70;;;24.80;99.90;;;;;;6233291;28;89351;-71
2023/08/14 06:50:49;;;;;;;7.18;5.30;;;24.80;99.90;;;;;;6211722;28;88269;-71
2023/08/14 06:53:51;;;;;;;6.85;4.80;;;24.80;99.90;;;;;;6223750;28;89109;-70
2023/08/14 06:56:53;;;;;;;7.88;4.72;;;24.80;99.90;;;;;;6226354;28;89075;-70
2023/08/14 07:00:12;;;;;;;5.95;5.28;;;24.80;99.90;;;;;;6222826;28;90283;-71
2023/08/14 07:03:15;;;;;;;5.07;4.55;;;24.80;99.90;;;;;;6231461;28;89041;-69
2023/08/14 07:06:17;;;;;;;6.22;4.85;;;24.80;99.90;;;;;;6235792;27;89025;-70
2023/08/14 07:09:25;;;;;;;9.57;6.80;;;24.80;99.90;;;;;;6223776;28;89093;-69
2023/08/14 07:12:27;;;;;;;6.82;5.32;;;24.80;99.90;;;;;;6215977;28;88533;-70
2023/08/14 07:15:29;;;;;;;6.72;4.78;;;24.80;99.90;;;;;;6225681;28;89095;-70
2023/08/14 07:18:32;;;;;;;6.78;5.18;;;24.90;99.90;;;;;;6216464;28;88954;-70
2023/08/14 07:21:34;;;;;;;6.35;5.18;;;24.90;99.90;;;;;;6233024;28;88330;-71
2023/08/14 07:24:36;;;;;;;5.68;4.97;;;24.90;99.90;;;;;;6231599;28;89070;-70
2023/08/14 07:27:38;;;;;;;5.65;4.72;;;24.80;99.90;;;;;;6217248;28;89526;-71
2023/08/14 07:30:40;;;;;;;6.97;5.20;;;24.90;99.90;;;;;;6205486;28;88000;-72
2023/08/14 07:33:43;;;;;;;7.30;4.90;;;24.90;99.90;;;;;;6230481;28;89043;-72
2023/08/14 07:36:45;;;;;;;7.53;5.05;;;24.90;99.90;;;;;;6223350;28;89094;-73
2023/08/14 07:39:48;;;;;;;8.82;5.20;;;24.90;99.90;;;;;;6224951;28;89039;-73
2023/08/14 07:42:50;;;;;;;6.15;5.15;;;24.90;99.90;;;;;;6224267;28;87895;-73
2023/08/14 07:45:52;;;;;;;7.47;4.90;;;24.90;99.90;;;;;;6212640;28;89157;-73
2023/08/14 07:48:55;;;;;;;7.80;5.00;;;24.90;99.90;;;;;;6227005;28;89221;-73
2023/08/14 07:51:57;;;;;;;6.53;5.00;;;24.90;99.90;;;;;;6217551;28;88974;-73
2023/08/14 07:54:59;;;;;;;5.95;5.05;;;24.90;99.90;;;;;;6218454;28;89371;-72
2023/08/14 07:58:01;;;;;;;5.45;4.93;;;24.90;99.90;;;;;;6229980;28;89085;-73
2023/08/14 08:01:03;;;;;;;7.65;5.38;;;24.90;99.90;;;;;;6228456;28;90032;-73
2023/08/14 08:04:07;;;;;;;7.78;5.35;;;24.90;99.90;;;;;;6230069;28;89002;-73
2023/08/14 08:07:09;;;;;;;7.38;5.22;;;24.90;99.90;;;;;;6223565;28;89063;-73
2023/08/14 08:10:11;;;;;;;6.65;5.07;;;24.90;99.90;;;;;;6228737;28;89054;-73
2023/08/14 08:13:13;;;;;;;5.95;5.35;;;24.90;99.90;;;;;;6221847;28;89144;-74
2023/08/14 08:16:15;;;;;;;5.60;4.82;;;24.90;99.90;;;;;;6212326;28;89222;-73
2023/08/14 08:19:19;;;;;;;5.38;4.88;;;24.90;99.90;;;;;;6229099;28;88963;-74
2023/08/14 08:22:21;;;;;;;4.85;4.35;;;24.90;99.90;;;;;;6218497;28;88956;-73
2023/08/14 08:25:23;;;;;;;5.90;5.30;;;24.90;99.90;;;;;;6221367;28;89006;-73
2023/08/14 08:28:25;;;;;;;5.72;4.95;;;24.90;99.90;;;;;;6231314;28;89069;-73
2023/08/14 08:31:27;;;;;;;5.50;4.97;;;24.90;99.90;;;;;;6237980;28;88999;-72
2023/08/14 08:34:30;;;;;;;5.93;5.00;;;24.90;99.90;;;;;;6232520;28;89085;-73
2023/08/14 08:37:32;;;;;;;6.25;5.40;;;24.90;99.90;;;;;;6229713;28;89012;-73
2023/08/14 08:40:35;;;;;;;5.80;5.00;;;24.90;99.90;;;;;;6212240;28;88966;-73
2023/08/14 08:43:37;;;;;;;5.95;5.25;;;24.90;99.90;;;;;;6229164;28;87878;-71
2023/08/14 08:46:48;;;;;;;5.30;4.80;;;24.90;99.90;;;;;;6224207;28;89184;-71
2023/08/14 08:49:53;;;;;;;4.75;4.30;;;24.90;99.90;;;;;;6219788;28;89092;-71
2023/08/14 08:52:56;;;;;;;4.90;4.50;;;25.00;99.90;;;;;;6221316;28;88860;-71
2023/08/14 08:55:59;;;;;;;5.35;4.82;;;25.00;99.90;;;;;;6223428;28;89334;-72
2023/08/14 08:59:01;;;;;;;5.93;5.00;;;24.90;99.90;;;;;;6220098;28;87896;-71
2023/08/14 09:02:03;;;;;;;5.60;5.03;;;24.90;99.90;;;;;;6228422;28;90085;-71
2023/08/14 09:05:07;;;;;;;7.03;5.50;;;24.90;99.90;;;;;;6224441;28;88920;-71
2023/08/14 09:08:09;;;;;;;6.20;5.50;;;24.90;99.90;;;;;;6224585;28;89026;-71
2023/08/14 09:11:11;;;;;;;5.50;5.00;;;25.00;99.90;;;;;;6232854;28;89956;-71
2023/08/14 09:14:15;;;;;;;5.90;5.40;;;25.00;99.90;;;;;;6229644;28;89057;-71
2023/08/14 09:17:17;;;;;;;6.93;5.25;;;25.00;99.90;;;;;;6231507;28;89396;-72
2023/08/14 09:20:21;;;;;;;5.35;4.80;;;25.00;99.90;;;;;;6224722;28;89356;-73
2023/08/14 09:23:23;;;;;;;5.45;4.95;;;25.00;99.90;;;;;;6225653;28;88091;-71
2023/08/14 09:26:26;;;;;;;5.95;4.90;;;25.00;99.90;;;;;;6228740;28;90334;-72
2023/08/14 09:29:31;;;;;;;5.47;4.95;;;25.00;99.90;;;;;;6228045;28;89117;-71
2023/08/14 09:32:33;;;;;;;5.32;4.82;;;25.00;99.90;;;;;;6229359;28;90211;-72
2023/08/14 09:35:37;;;;;;;7.05;5.57;;;25.10;99.90;;;;;;6234285;28;89071;-74
2023/08/14 09:38:39;;;;;;;6.65;5.35;;;25.00;99.90;;;;;;6236449;28;89230;-70
2023/08/14 09:41:46;;;;;;;6.18;5.47;;;25.10;99.90;;;;;;6233660;28;88993;-71
2023/08/14 09:44:48;;;;;;;5.47;4.85;;;25.10;99.90;;;;;;6233927;28;88980;-71
2023/08/14 09:47:51;;;;;;;5.10;4.40;;;25.10;99.90;;;;;;6236187;28;89155;-71
2023/08/14 09:50:54;;;;;;;5.57;5.03;;;25.10;99.90;;;;;;6230275;28;89194;-71
2023/08/14 09:53:57;;;;;;;7.07;5.05;;;25.00;99.90;;;;;;6225165;28;88449;-71
2023/08/14 09:57:02;;;;;;;7.32;5.60;;;25.10;99.90;;;;;;6231690;28;88274;-73
2023/08/14 10:00:06;;;;;;;6.07;5.35;;;25.10;99.90;;;;;;6224515;28;89344;-72
2023/08/14 10:03:09;;;;;;;6.65;5.05;;;25.10;99.90;;;;;;6220681;28;90157;-71
2023/08/14 10:06:13;;;;;;;7.22;5.28;;;25.10;99.90;;;;;;6241849;28;89076;-70
2023/08/14 10:09:15;;;;;;;5.95;4.93;;;25.10;99.90;;;;;;6226556;28;89026;-70
2023/08/14 10:12:23;;;;;;;5.78;5.15;;;25.10;99.90;;;;;;6230278;28;89888;-71
2023/08/14 10:15:30;;;;;;;5.50;5.00;;;25.10;99.90;;;;;;6231741;28;87875;-71
2023/08/14 10:18:35;;;;;;;8.27;5.13;;;25.00;99.90;;;;;;6231625;28;89156;-70
2023/08/14 10:21:41;;;;;;;5.50;5.00;;;25.10;99.90;;;;;;6206531;28;87985;-71
2023/08/14 10:24:44;;;;;;;6.28;5.30;;;25.10;99.90;;;;;;6208509;28;88550;-71
2023/08/14 10:27:46;;;;;;;6.40;5.70;;;25.10;99.90;;;;;;6204724;28;89053;-71
2023/08/14 10:30:48;;;;;;;7.97;5.72;;;25.10;99.90;;;;;;6207377;28;87978;-71
2023/08/14 10:33:50;;;;;;;6.18;5.55;;;25.10;99.90;;;;;;6216504;28;90424;-72
2023/08/14 10:36:54;;;;;;;7.18;5.10;;;25.10;99.90;;;;;;6206497;28;87906;-71
2023/08/14 10:40:15;;;;;;;6.28;5.28;;;25.20;99.90;;;;;;6206153;28;89129;-70
2023/08/14 10:43:17;;;;;;;13.68;5.50;;;25.10;99.90;;;;;;6202701;28;88147;-69
2023/08/14 10:46:19;;;;;;;6.60;5.55;;;25.10;99.90;;;;;;6192279;28;89626;-69
2023/08/14 10:49:21;;;;;;;6.55;5.22;;;25.20;99.90;;;;;;6199021;28;89216;-68
2023/08/14 10:52:25;;;;;;;5.70;5.10;;;25.20;99.90;;;;;;6204115;28;89237;-69
2023/08/14 10:55:38;;;;;;;7.50;5.47;;;25.20;99.90;;;;;;6209249;28;87832;-69
2023/08/14 10:58:47;;;;;;;6.40;5.50;;;25.20;99.90;;;;;;6200083;28;89813;-69
2023/08/14 11:01:53;;;;;;;6.97;5.18;;;25.20;99.90;;;;;;6197648;28;89086;-69
2023/08/14 11:04:59;;;;;;;5.28;4.78;;;25.20;99.90;;;;;;6189898;28;89970;-69
2023/08/14 11:08:03;;;;;;;7.30;5.22;;;25.20;99.90;;;;;;6203978;28;89054;-69
2023/08/14 11:11:06;;;;;;;5.82;5.28;;;25.20;99.90;;;;;;6195293;28;89113;-69
2023/08/14 11:14:08;;;;;;;6.15;5.00;;;25.20;99.90;;;;;;6186020;28;89306;-69
2023/08/14 11:17:11;;;;;;;5.28;4.78;;;25.20;99.90;;;;;;6193559;28;88988;-69
2023/08/14 11:20:13;;;;;;;7.32;4.90;;;25.20;99.90;;;;;;6188252;28;89090;-70
2023/08/14 11:23:17;;;;;;;9.55;4.95;;;25.20;99.90;;;;;;6195774;28;89042;-69
2023/08/14 11:26:20;;;;;;;6.18;5.57;;;25.20;99.90;;;;;;6186515;28;88284;-69
2023/08/14 11:29:21;;;;;;;6.00;5.22;;;25.20;99.90;;;;;;6202320;28;90023;-69
2023/08/14 11:32:24;;;;;;;5.60;5.07;;;25.20;99.90;;;;;;6195763;28;89033;-69
2023/08/14 11:35:28;;;;;;;5.35;4.85;;;25.20;99.90;;;;;;6206663;28;90065;-69
2023/08/14 11:38:31;;;;;;;5.60;4.95;;;25.20;99.90;;;;;;6192976;28;91850;-69
2023/08/14 11:41:35;;;;;;;6.40;5.20;;;25.20;99.90;;;;;;6193571;28;89158;-69
2023/08/14 11:44:37;;;;;;;4.90;4.40;;;25.20;99.90;;;;;;6196972;28;89359;-70
2023/08/14 11:47:44;;;;;;;5.30;4.80;;;25.20;99.90;;;;;;6201064;28;89051;-69
2023/08/14 11:50:47;;;;;;;5.13;4.63;;;25.20;99.90;;;;;;6192514;28;89011;-69
2023/08/14 11:53:51;;;;;;;6.10;4.97;;;25.20;99.90;;;;;;6200289;28;89412;-69
2023/08/14 11:56:53;;;;;;;7.55;5.28;;;25.20;99.90;;;;;;6204675;28;88501;-69
2023/08/14 11:59:57;;;;;;;5.68;5.00;;;25.20;99.90;;;;;;6206768;28;89169;-69
2023/08/14 12:03:00;;;;;;;5.80;5.20;;;25.20;99.90;;;;;;6189732;28;89346;-69
2023/08/14 12:06:04;;;;;;;6.18;4.88;;;25.20;99.90;;;;;;6197566;28;90333;-69
2023/08/14 12:09:10;;;;;;;5.60;5.00;;;25.20;99.90;;;;;;6191561;28;89017;-70
2023/08/14 12:12:12;;;;;;;6.43;4.88;;;25.20;99.90;;;;;;6193006;28;89140;-69
2023/08/14 12:15:21;;;;;;;5.32;4.82;;;25.20;99.90;;;;;;6211027;28;89167;-69
2023/08/14 12:18:24;;;;;;;5.97;4.82;;;25.20;99.90;;;;;;6220494;28;88968;-69
2023/08/14 12:21:27;;;;;;;5.00;4.50;;;25.20;99.90;;;;;;6201797;28;89034;-69
2023/08/14 12:24:38;;;;;;;6.55;5.10;;;25.20;99.90;;;;;;6208951;28;89081;-69
2023/08/14 12:27:40;;;;;;;5.85;5.32;;;25.20;99.90;;;;;;6196783;28;88249;-70
2023/08/14 12:30:44;;;;;;;6.28;5.30;;;25.20;99.90;;;;;;6208206;28;87978;-69
2023/08/14 12:33:46;;;;;;;6.13;5.10;;;25.20;99.90;;;;;;6209996;28;89309;-69
2023/08/14 12:36:48;;;;;;;5.55;4.88;;;25.20;99.90;;;;;;6195468;28;89716;-69
2023/08/14 12:39:52;;;;;;;5.40;4.90;;;25.20;99.90;;;;;;6208863;28;89012;-69
2023/08/14 12:42:54;;;;;;;5.40;4.90;;;25.30;99.90;;;;;;6195997;28;89223;-69
2023/08/14 12:45:56;;;;;;;5.20;4.70;;;25.20;99.90;;;;;;6195252;28;89160;-69
2023/08/14 12:48:58;;;;;;;4.90;4.50;;;25.20;99.90;;;;;;6203025;28;89044;-69
2023/08/14 12:52:00;;;;;;;5.05;4.65;;;25.20;99.90;;;;;;6202215;28;88042;-69
2023/08/14 12:55:04;;;;;;;5.18;4.75;;;25.20;99.90;;;;;;6189118;28;89041;-69
2023/08/14 12:58:06;;;;;;;6.05;5.10;;;25.20;99.90;;;;;;6197224;28;88367;-69
2023/08/14 13:01:08;;;;;;;5.88;5.25;;;25.20;99.90;;;;;;6208425;28;88309;-69
2023/08/14 13:04:10;;;;;;;5.13;4.70;;;25.30;99.90;;;;;;6200942;28;87989;-69
2023/08/14 13:07:12;;;;;;;5.97;5.30;;;25.30;99.90;;;;;;6195727;28;90015;-69
2023/08/14 13:10:15;;;;;;;6.25;5.47;;;25.30;99.90;;;;;;6189305;28;89248;-69
2023/08/14 13:13:18;;;;;;;6.15;5.15;;;25.20;99.90;;;;;;6187005;28;89212;-69
2023/08/14 13:16:20;;;;;;;5.28;4.60;;;25.20;99.90;;;;;;6195004;28;88115;-69
2023/08/14 13:19:22;;;;;;;5.22;4.72;;;25.20;99.90;;;;;;6193472;28;89194;-69
2023/08/14 13:22:23;;;;;;;5.18;4.68;;;25.20;99.90;;;;;;6208679;28;89237;-69
2023/08/14 13:25:27;;;;;;;5.40;4.90;;;25.30;99.90;;;;;;6198078;28;86982;-69
2023/08/14 13:28:29;;;;;;;5.20;4.70;;;25.20;99.90;;;;;;6186687;28;88344;-69
2023/08/14 13:31:32;;;;;;;5.50;5.00;;;25.20;99.90;;;;;;6219537;28;89009;-69
2023/08/14 13:34:34;;;;;;;5.43;4.93;;;25.20;99.90;;;;;;6207992;28;89415;-69
2023/08/14 13:37:36;;;;;;;5.90;5.03;;;25.30;99.90;;;;;;6193231;28;90247;-69
2023/08/14 13:40:39;;;;;;;6.47;5.28;;;25.20;99.90;;;;;;6205460;28;88954;-69
2023/08/14 13:43:42;;;;;;;5.47;4.97;;;25.20;99.90;;;;;;6198101;28;89355;-69
2023/08/14 13:46:44;;;;;;;4.88;4.47;;;25.20;99.90;;;;;;6195568;28;89013;-69
2023/08/14 13:49:46;;;;;;;5.13;4.72;;;25.20;99.90;;;;;;6208191;28;89387;-69
2023/08/14 13:52:48;;;;;;;5.55;5.05;;;25.20;99.90;;;;;;6197134;28;88975;-69
2023/08/14 13:55:51;;;;;;;5.40;4.90;;;25.20;99.90;;;;;;6202496;28;87969;-69
2023/08/14 13:58:53;;;;;;;5.57;5.10;;;25.30;99.90;;;;;;6207390;28;88249;-69
2023/08/14 14:01:55;;;;;;;5.70;5.20;;;25.20;99.90;;;;;;6206043;28;89097;-69
2023/08/14 14:04:58;;;;;;;5.80;5.20;;;25.30;99.90;;;;;;6196283;28;89142;-70
2023/08/14 14:08:00;;;;;;;5.50;5.00;;;25.20;99.90;;;;;;6198468;28;88922;-70
2023/08/14 14:11:03;;;;;;;5.78;5.03;;;25.30;99.90;;;;;;6208173;28;89171;-70
2023/08/14 14:14:05;;;;;;;5.93;5.05;;;25.30;99.90;;;;;;6205052;28;89045;-70
2023/08/14 14:17:07;;;;;;;6.10;4.97;;;25.20;99.90;;;;;;6182211;28;89096;-70
2023/08/14 14:20:10;;;;;;;5.10;4.70;;;25.30;99.90;;;;;;6200297;28;89008;-70
2023/08/14 14:23:13;;;;;;;5.20;4.80;;;25.30;99.90;;;;;;6229830;28;89044;-70
2023/08/14 14:26:16;;;;;;;5.10;4.60;;;25.30;99.90;;;;;;6214703;28;89073;-70
2023/08/14 14:29:18;;;;;;;4.85;4.43;;;25.30;99.90;;;;;;6221533;28;88348;-70
2023/08/14 14:32:20;;;;;;;5.53;5.03;;;25.30;99.90;;;;;;6230287;28;88980;-70
2023/08/14 14:35:24;;;;;;;5.80;5.30;;;25.30;99.90;;;;;;6208829;28;89229;-70
2023/08/14 14:38:26;;;;;;;5.90;5.30;;;25.30;99.90;;;;;;6230561;28;89188;-70
2023/08/14 14:41:29;;;;;;;5.68;5.18;;;25.30;99.90;;;;;;6230649;28;88225;-70
2023/08/14 14:44:31;;;;;;;5.50;5.00;;;25.20;99.90;;;;;;6230403;28;88116;-70
2023/08/14 14:47:33;;;;;;;5.60;5.10;;;25.30;99.90;;;;;;6229734;28;89092;-70
2023/08/14 14:50:35;;;;;;;5.65;5.15;;;25.30;99.90;;;;;;6225639;28;88017;-70
2023/08/14 14:53:37;;;;;;;5.35;4.85;;;25.30;99.90;;;;;;6231088;27;89065;-70
2023/08/14 14:56:41;;;;;;;5.30;4.80;;;25.20;99.90;;;;;;6218510;28;89082;-70
2023/08/14 14:59:43;;;;;;;4.70;4.30;;;25.30;99.90;;;;;;6222820;28;88793;-70
2023/08/14 15:02:45;;;;;;;4.93;4.53;;;25.30;99.90;;;;;;6230976;28;89060;-70
2023/08/14 15:05:49;;;;;;;5.28;4.78;;;25.30;99.90;;;;;;6215683;28;89102;-70
2023/08/14 15:08:52;;;;;;;5.15;4.65;;;25.30;99.90;;;;;;6226790;28;89953;-70
2023/08/14 15:11:55;;;;;;;5.30;4.75;;;25.30;99.90;;;;;;6231255;28;89043;-70
2023/08/14 15:14:58;;;;;;;5.15;4.75;;;25.30;99.90;;;;;;6218094;28;88682;-69
2023/08/14 15:18:00;;;;;;;5.93;5.15;;;25.30;99.90;;;;;;6229193;28;88976;-70
2023/08/14 15:21:02;;;;;;;5.50;5.00;;;25.30;99.90;;;;;;6226616;28;89079;-70
2023/08/14 15:24:05;;;;;;;4.82;4.43;;;25.30;99.90;;;;;;6213180;28;89211;-69
2023/08/14 15:27:08;;;;;;;5.10;4.60;;;25.30;99.90;;;;;;6228954;28;89369;-70
2023/08/14 15:30:11;;;;;;;5.15;4.65;;;25.30;99.90;;;;;;6229036;28;88742;-69
2023/08/14 15:33:13;;;;;;;5.13;4.72;;;25.30;99.90;;;;;;6230806;28;89215;-69
2023/08/14 15:36:15;;;;;;;5.60;5.10;;;25.30;99.90;;;;;;6217417;28;89181;-69
2023/08/14 15:39:17;;;;;;;5.30;4.80;;;25.30;99.90;;;;;;6224678;28;89890;-69
2023/08/14 15:42:20;;;;;;;5.55;5.05;;;25.30;99.90;;;;;;6227638;28;89092;-69
2023/08/14 15:45:22;;;;;;;5.78;5.10;;;25.30;99.90;;;;;;6221270;28;89036;-69
2023/08/14 15:48:24;;;;;;;5.57;5.07;;;25.40;99.90;;;;;;6230735;28;88011;-69
2023/08/14 15:51:26;;;;;;;5.30;4.80;;;25.30;99.90;;;;;;6215903;28;88974;-69